createdAt,value
2022-10-17T00:21:54.518Z,969.13
2022-10-17T00:31:57.602Z,969.23
2022-10-17T00:42:00.903Z,969.27
2022-10-17T00:52:03.659Z,969.3
2022-10-17T00:57:04.990Z,969.25
2022-10-17T01:07:08.983Z,969.27
2022-10-17T01:12:10.801Z,969.26
2022-10-17T01:17:12.458Z,969.25
2022-10-17T01:22:14.307Z,969.21
2022-10-17T01:27:15.545Z,969.19
2022-10-17T01:33:05.202Z,969.22
2022-10-17T01:37:18.829Z,969.23
2022-10-17T01:42:20.682Z,969.25
2022-10-17T01:47:22.484Z,969.24
2022-10-17T01:52:24.461Z,969.21
2022-10-17T01:57:26.121Z,969.16
2022-10-17T02:02:27.257Z,969.11
2022-10-17T02:07:29.191Z,969.1
2022-10-17T02:12:30.781Z,969.13
2022-10-17T02:17:32.139Z,969.14
2022-10-17T02:22:34.042Z,969.14
2022-10-17T02:27:35.602Z,969.08
2022-10-17T02:32:36.782Z,969.09
2022-10-17T02:37:38.169Z,969.15
2022-10-17T02:43:27.779Z,969.23
2022-10-17T02:47:41.944Z,969.18
2022-10-17T02:52:44.070Z,969.28
2022-10-17T02:57:46.138Z,969.37
2022-10-17T03:02:48.099Z,969.34
2022-10-17T03:07:49.487Z,969.37
2022-10-17T03:12:51.350Z,969.42
2022-10-17T03:17:53.386Z,969.35
2022-10-17T03:22:54.821Z,969.37
2022-10-17T03:27:56.386Z,969.41
2022-10-17T03:32:57.744Z,969.34
2022-10-17T03:37:59.865Z,969.38
2022-10-17T03:43:01.646Z,969.33
2022-10-17T03:48:03.364Z,969.35
2022-10-17T03:53:05.328Z,969.32
2022-10-17T03:58:07.196Z,969.37
2022-10-17T04:03:08.568Z,969.43
2022-10-17T04:08:10.422Z,969.5
2022-10-17T04:13:12.134Z,969.5
2022-10-17T04:18:14.311Z,969.63
2022-10-17T04:23:15.856Z,969.68
2022-10-17T04:28:17.646Z,969.69
2022-10-17T04:33:18.774Z,969.74
2022-10-17T04:38:22.787Z,969.77
2022-10-17T04:43:21.854Z,969.76
2022-10-17T04:48:23.302Z,969.76
2022-10-17T04:53:25.473Z,969.74
2022-10-17T04:58:27.329Z,969.86
2022-10-17T05:03:29.237Z,969.91
2022-10-17T05:08:31.350Z,969.92
2022-10-17T05:13:32.648Z,969.95
2022-10-17T05:18:34.831Z,969.96
2022-10-17T05:23:36.945Z,969.92
2022-10-17T05:28:38.298Z,970.04
2022-10-17T05:33:39.752Z,970.19
2022-10-17T05:38:41.559Z,970.26
2022-10-17T05:43:42.972Z,970.26
2022-10-17T05:48:44.372Z,970.24
2022-10-17T05:53:46.019Z,970.27
2022-10-17T05:58:50.110Z,970.28
2022-10-17T06:03:49.620Z,970.35
2022-10-17T06:08:50.895Z,970.34
2022-10-17T06:13:53.027Z,970.39
2022-10-17T06:19:42.672Z,970.47
2022-10-17T06:23:55.956Z,970.46
2022-10-17T06:28:57.250Z,970.46
2022-10-17T06:33:58.742Z,970.53
2022-10-17T06:38:59.976Z,970.52
2022-10-17T06:44:02.054Z,970.55
2022-10-17T06:49:03.701Z,970.62
2022-10-17T06:54:05.082Z,970.7
2022-10-17T06:59:06.962Z,970.75
2022-10-17T07:04:09.026Z,970.79
2022-10-17T07:09:11.207Z,970.8
2022-10-17T07:14:12.413Z,970.91
2022-10-17T07:19:13.616Z,970.97
2022-10-17T07:24:15.369Z,971
2022-10-17T07:30:05.005Z,971.03
2022-10-17T07:34:17.938Z,971.04
2022-10-17T07:39:19.425Z,971.07
2022-10-17T07:44:21.341Z,971.12
2022-10-17T07:49:23.329Z,971.21
2022-10-17T07:54:24.991Z,971.18
2022-10-17T07:59:27.140Z,971.14
2022-10-17T08:04:28.643Z,971.14
2022-10-17T08:09:30.358Z,971.15
2022-10-17T08:14:31.632Z,971.19
2022-10-17T08:19:32.939Z,971.18
2022-10-17T08:24:34.406Z,971.13
2022-10-17T08:29:36.291Z,971.18
2022-10-17T08:34:38.470Z,971.13
2022-10-17T08:39:39.742Z,971.19
2022-10-17T08:44:41.411Z,971.22
2022-10-17T08:49:42.831Z,971.26
2022-10-17T08:54:44.580Z,971.24
2022-10-17T08:59:46.312Z,971.24
2022-10-17T09:04:48.452Z,971.18
2022-10-17T09:09:50.338Z,971.16
2022-10-17T09:14:52.013Z,971.1
2022-10-17T09:19:53.351Z,971.14
2022-10-17T09:24:54.733Z,971.18
2022-10-17T09:29:56.180Z,971.22
2022-10-17T09:34:58.197Z,971.2
2022-10-17T09:40:00.025Z,971.19
2022-10-17T09:45:02.162Z,971.2
2022-10-17T09:50:03.475Z,971.26
2022-10-17T09:55:05.336Z,971.23
2022-10-17T10:00:06.577Z,971.31
2022-10-17T10:05:08.466Z,971.34
2022-10-17T10:10:09.716Z,971.37
2022-10-17T10:15:11.105Z,971.35
2022-10-17T10:20:12.973Z,971.28
2022-10-17T10:25:14.377Z,971.3
2022-10-17T10:30:16.444Z,971.25
2022-10-17T10:35:18.358Z,971.27
2022-10-17T10:40:19.691Z,971.28
2022-10-17T10:45:43.111Z,971.32
2022-10-17T10:50:23.647Z,971.35
2022-10-17T10:56:13.309Z,971.31
2022-10-17T11:00:27.418Z,971.26
2022-10-17T11:06:17.001Z,971.22
2022-10-17T11:10:30.186Z,971.21
2022-10-17T11:15:31.782Z,971.14
2022-10-17T11:20:33.203Z,971.15
2022-10-17T11:25:34.417Z,971.12
2022-10-17T11:30:36.029Z,971.08
2022-10-17T11:35:38.045Z,971.14
2022-10-17T11:40:40.002Z,971.09
2022-10-17T11:45:41.379Z,971.05
2022-10-17T11:55:43.913Z,971.05
2022-10-17T12:00:48.732Z,971.02
2022-10-17T12:05:47.295Z,971
2022-10-17T12:10:49.474Z,971.02
2022-10-17T12:15:51.472Z,970.9
2022-10-17T12:20:52.995Z,970.91
2022-10-17T12:25:55.844Z,970.86
2022-10-17T12:30:55.761Z,970.87
2022-10-17T12:35:57.564Z,970.83
2022-10-17T12:40:59.371Z,970.83
2022-10-17T12:46:01.481Z,970.81
2022-10-17T12:51:23.975Z,970.82
2022-10-17T12:56:04.730Z,970.84
2022-10-17T13:01:22.909Z,970.86
2022-10-17T13:06:07.602Z,970.85
2022-10-17T13:11:09.150Z,970.86
2022-10-17T13:16:10.762Z,970.83
2022-10-17T13:21:24.217Z,970.82
2022-10-17T13:26:14.198Z,970.8
2022-10-17T13:31:15.848Z,970.79
2022-10-17T13:36:17.427Z,970.87
2022-10-17T13:41:36.110Z,970.84
2022-10-17T13:46:36.568Z,970.83
2022-10-17T13:51:22.302Z,970.83
2022-10-17T13:56:28.151Z,970.77
2022-10-17T14:01:25.879Z,970.75
2022-10-17T14:06:27.043Z,970.8
2022-10-17T14:11:29.184Z,970.81
2022-10-17T14:17:18.835Z,970.82
2022-10-17T14:21:43.184Z,970.87
2022-10-17T14:26:33.967Z,970.89
2022-10-17T14:31:35.172Z,970.88
2022-10-17T14:46:50.851Z,970.97
2022-10-17T15:07:07.254Z,971.09
2022-10-17T15:11:59.333Z,971.04
2022-10-17T15:17:00.672Z,971.09
2022-10-17T15:27:04.353Z,971.16
2022-10-17T15:37:07.907Z,971.23
2022-10-17T15:42:09.453Z,971.23
2022-10-17T15:52:13.134Z,971.27
2022-10-17T15:57:15.319Z,971.34
2022-10-17T16:02:16.849Z,971.32
2022-10-17T16:07:18.583Z,971.41
2022-10-17T16:12:20.304Z,971.44
2022-10-17T16:17:22.080Z,971.52
2022-10-17T16:22:23.958Z,971.63
2022-10-17T16:27:25.760Z,971.65
2022-10-17T16:32:27.610Z,971.64
2022-10-17T16:37:29.430Z,971.7
2022-10-17T16:47:33.462Z,971.75
2022-10-17T16:52:35.364Z,971.87
2022-10-17T16:57:37.409Z,971.91
2022-10-17T17:03:27.024Z,971.97
2022-10-17T17:09:16.664Z,972.05
2022-10-17T17:12:42.117Z,972.05
2022-10-17T17:17:54.821Z,972.07
2022-10-17T17:22:45.185Z,972.09
2022-10-17T17:28:34.832Z,972.12
2022-10-17T17:32:48.205Z,972.24
2022-10-17T17:37:50.210Z,972.2
2022-10-17T17:42:52.116Z,972.29
2022-10-17T17:47:54.029Z,972.32
2022-10-17T17:52:55.750Z,972.32
2022-10-17T17:57:57.865Z,972.33
2022-10-17T18:02:59.787Z,972.32
2022-10-17T18:08:02.230Z,972.3
2022-10-17T18:13:03.466Z,972.35
2022-10-17T18:18:04.809Z,972.39
2022-10-17T18:23:06.194Z,972.4
2022-10-17T18:28:07.750Z,972.43
2022-10-17T18:33:09.264Z,972.41
2022-10-17T18:38:11.041Z,972.42
2022-10-17T18:43:13.126Z,972.47
2022-10-17T18:48:15.114Z,972.49
2022-10-17T18:53:16.742Z,972.42
2022-10-17T18:58:18.627Z,972.46
2022-10-17T19:03:20.088Z,972.44
2022-10-17T19:08:21.961Z,972.51
2022-10-17T19:13:23.699Z,972.58
2022-10-17T19:18:25.065Z,972.6
2022-10-17T19:23:26.978Z,972.6
2022-10-17T19:28:29.044Z,972.55
2022-10-17T19:33:30.243Z,972.5
2022-10-17T19:38:31.840Z,972.53
2022-10-17T19:43:33.041Z,972.52
2022-10-17T19:48:34.784Z,972.6
2022-10-17T19:53:36.120Z,972.62
2022-10-17T19:58:37.322Z,972.67
2022-10-17T20:04:27.026Z,972.71
2022-10-17T20:10:16.619Z,972.71
2022-10-17T20:13:43.287Z,972.68
2022-10-17T20:18:45.350Z,972.7
2022-10-17T20:24:34.965Z,972.71
2022-10-17T20:28:48.983Z,972.73
2022-10-17T20:33:50.311Z,972.69
2022-10-17T20:38:51.976Z,972.76
2022-10-17T20:44:41.692Z,972.78
2022-10-17T20:48:55.014Z,972.77
2022-10-17T20:58:57.645Z,972.8
2022-10-17T21:04:06.303Z,972.82
2022-10-17T21:09:01.474Z,972.78
2022-10-17T21:14:51.111Z,972.81
2022-10-17T21:19:05.045Z,972.88
2022-10-17T21:24:06.558Z,972.82
2022-10-17T21:29:08.347Z,972.81
2022-10-17T21:34:10.219Z,972.81
2022-10-17T21:39:12.121Z,972.85
2022-10-17T21:44:13.887Z,972.84
2022-10-17T21:50:03.541Z,972.78
2022-10-17T21:54:16.738Z,972.78
2022-10-17T21:59:18.172Z,972.78
2022-10-17T22:14:23.892Z,972.8
2022-10-17T22:19:25.390Z,972.76
2022-10-17T22:24:27.511Z,972.75
2022-10-17T22:29:29.289Z,972.8
2022-10-17T22:34:30.528Z,972.86
2022-10-17T22:39:32.704Z,972.89
2022-10-17T22:44:34.175Z,972.86
2022-10-17T22:49:35.582Z,972.9
2022-10-17T22:54:37.478Z,972.88
2022-10-17T22:59:38.778Z,972.94
2022-10-17T23:04:40.672Z,972.83
2022-10-17T23:10:30.298Z,972.82
2022-10-17T23:14:44.235Z,972.79
2022-10-17T23:19:46.225Z,972.8
2022-10-17T23:24:47.934Z,972.85
2022-10-17T23:29:49.635Z,972.74
2022-10-17T23:34:50.791Z,972.74
2022-10-17T23:39:52.282Z,972.7
2022-10-17T23:44:54.229Z,972.68
2022-10-17T23:50:43.835Z,972.68
2022-10-17T23:54:58.071Z,972.74
2022-10-17T23:59:59.612Z,972.62
